createdAt,value
2019-06-01T00:00:40.002Z,5.45
2019-06-01T00:01:46.846Z,3.70
2019-06-01T00:02:55.823Z,4.58
2019-06-01T00:03:57.897Z,4.10
2019-06-01T00:05:02.258Z,4.28
2019-06-01T00:06:08.267Z,3.65
2019-06-01T00:07:13.429Z,4.47
2019-06-01T00:08:18.184Z,4.17
2019-06-01T00:09:22.425Z,4.12
2019-06-01T00:10:27.299Z,4.30
2019-06-01T00:11:31.467Z,4.12
2019-06-01T00:12:39.207Z,4.20
2019-06-01T00:13:43.577Z,4.05
2019-06-01T00:14:48.345Z,5.15
2019-06-01T00:15:52.617Z,3.67
2019-06-01T00:16:57.397Z,4.30
2019-06-01T00:18:01.567Z,4.97
2019-06-01T00:19:06.353Z,5.10
2019-06-01T00:20:10.592Z,5.80
2019-06-01T00:21:15.602Z,4.20
2019-06-01T00:22:19.944Z,4.25
2019-06-01T00:23:24.771Z,4.58
2019-06-01T00:24:29.007Z,3.90
2019-06-01T00:25:33.800Z,3.80
2019-06-01T00:26:38.190Z,4.00
2019-06-01T00:27:44.706Z,3.92
2019-06-01T00:28:50.018Z,4.28
2019-06-01T00:29:55.764Z,4.75
2019-06-01T00:31:00.303Z,5.03
2019-06-01T00:32:05.521Z,3.84
2019-06-01T00:33:09.756Z,4.53
2019-06-01T00:34:14.591Z,4.13
2019-06-01T00:35:18.758Z,4.67
2019-06-01T00:36:23.508Z,4.90
2019-06-01T00:37:27.852Z,4.80
2019-06-01T00:38:32.653Z,5.53
2019-06-01T00:39:37.019Z,3.77
2019-06-01T00:40:41.776Z,3.27
2019-06-01T00:41:46.015Z,4.12
2019-06-01T00:42:50.855Z,5.08
2019-06-01T00:43:54.985Z,3.85
2019-06-01T00:45:00.708Z,4.37
2019-06-01T00:46:05.032Z,4.20
2019-06-01T00:47:09.856Z,4.78
2019-06-01T00:48:14.070Z,5.20
2019-06-01T00:49:18.851Z,5.87
2019-06-01T00:50:22.988Z,4.07
2019-06-01T00:51:27.830Z,5.20
2019-06-01T00:52:31.991Z,5.62
2019-06-01T00:53:36.815Z,6.40
2019-06-01T00:54:41.129Z,6.35
2019-06-01T00:55:46.053Z,4.97
2019-06-01T00:56:51.694Z,5.75
2019-06-01T00:57:56.548Z,4.60
2019-06-01T00:59:00.768Z,6.15
2019-06-01T01:00:08.455Z,5.12
2019-06-01T01:01:12.911Z,9.73
2019-06-01T01:02:17.650Z,5.67
2019-06-01T01:03:21.962Z,5.67
2019-06-01T01:04:26.766Z,5.45
2019-06-01T01:05:30.919Z,5.00
2019-06-01T01:06:35.678Z,5.55
2019-06-01T01:07:39.841Z,4.47
2019-06-01T01:08:44.874Z,4.42
2019-06-01T01:09:49.096Z,4.72
2019-06-01T01:10:55.026Z,4.80
2019-06-01T01:11:59.431Z,4.90
2019-06-01T01:13:05.315Z,5.87
2019-06-01T01:14:09.585Z,4.92
2019-06-01T01:15:14.563Z,4.73
2019-06-01T01:16:18.826Z,5.03
2019-06-01T01:17:23.654Z,4.93
2019-06-01T01:18:28.057Z,4.42
2019-06-01T01:19:32.824Z,4.90
2019-06-01T01:20:38.032Z,4.47
2019-06-01T01:21:42.821Z,5.05
2019-06-01T01:22:48.389Z,4.00
2019-06-01T01:23:54.737Z,4.53
2019-06-01T01:24:58.996Z,4.28
2019-06-01T01:26:03.867Z,4.75
2019-06-01T01:27:07.998Z,5.45
2019-06-01T01:28:12.852Z,4.07
2019-06-01T01:29:17.051Z,4.23
2019-06-01T01:30:21.824Z,4.20
2019-06-01T01:31:25.996Z,4.25
2019-06-01T01:32:32.116Z,5.10
2019-06-01T01:33:36.501Z,5.10
2019-06-01T01:34:41.615Z,5.58
2019-06-01T01:35:45.902Z,4.72
2019-06-01T01:36:52.571Z,4.78
2019-06-01T01:37:58.748Z,4.87
2019-06-01T01:39:03.672Z,4.33
2019-06-01T01:40:08.216Z,4.25
2019-06-01T01:41:13.053Z,3.93
2019-06-01T01:42:17.203Z,4.40
2019-06-01T01:43:22.176Z,5.72
2019-06-01T01:44:26.348Z,8.30
2019-06-01T01:45:31.203Z,7.70
2019-06-01T01:46:35.440Z,3.70
2019-06-01T01:47:40.194Z,4.50
2019-06-01T01:48:44.379Z,4.37
2019-06-01T01:49:50.013Z,4.62
2019-06-01T01:50:54.513Z,4.35
2019-06-01T01:51:59.538Z,5.30
2019-06-01T01:53:04.380Z,4.74
2019-06-01T01:54:09.194Z,4.45
2019-06-01T01:55:13.458Z,4.22
2019-06-01T01:56:18.643Z,4.03
2019-06-01T01:57:22.868Z,4.03
2019-06-01T01:58:27.653Z,6.65
2019-06-01T01:59:31.821Z,5.00
2019-06-01T02:00:42.877Z,5.00
2019-06-01T02:01:47.060Z,4.57
2019-06-01T02:02:51.945Z,5.10
2019-06-01T02:03:57.418Z,4.45
2019-06-01T02:05:02.282Z,4.67
2019-06-01T02:06:07.361Z,4.12
2019-06-01T02:07:12.393Z,4.28
2019-06-01T02:08:16.557Z,6.50
2019-06-01T02:09:21.448Z,6.20
2019-06-01T02:10:25.684Z,4.33
2019-06-01T02:11:30.512Z,4.45
2019-06-01T02:12:34.708Z,4.10
2019-06-01T02:13:39.462Z,6.17
2019-06-01T02:14:43.858Z,5.75
2019-06-01T02:15:48.614Z,4.80
2019-06-01T02:16:53.950Z,4.83
2019-06-01T02:17:58.762Z,5.12
2019-06-01T02:19:02.934Z,5.42
2019-06-01T02:20:08.186Z,5.33
2019-06-01T02:21:12.418Z,3.87
2019-06-01T02:22:17.180Z,5.33
2019-06-01T02:23:21.484Z,5.67
2019-06-01T02:24:26.216Z,4.70
2019-06-01T02:25:31.057Z,4.22
2019-06-01T02:26:35.951Z,5.85
2019-06-01T02:27:40.265Z,4.70
2019-06-01T02:28:45.033Z,4.28
2019-06-01T02:29:49.210Z,5.62
2019-06-01T02:30:55.964Z,4.60
2019-06-01T02:32:01.767Z,4.65
2019-06-01T02:33:06.645Z,4.80
2019-06-01T02:34:10.782Z,4.40
2019-06-01T02:35:15.673Z,4.67
2019-06-01T02:36:20.016Z,6.30
2019-06-01T02:37:24.841Z,7.28
2019-06-01T02:38:29.087Z,6.25
2019-06-01T02:39:34.825Z,4.00
2019-06-01T02:40:38.988Z,5.00
2019-06-01T02:41:44.908Z,5.17
2019-06-01T02:42:49.624Z,3.72
2019-06-01T02:43:54.775Z,4.62
2019-06-01T02:44:59.256Z,5.65
2019-06-01T02:46:06.634Z,5.05
2019-06-01T02:47:10.095Z,4.75
2019-06-01T02:48:15.020Z,5.37
2019-06-01T02:49:19.255Z,6.83
2019-06-01T02:50:24.160Z,5.47
2019-06-01T02:51:28.447Z,5.35
2019-06-01T02:52:33.437Z,6.22
2019-06-01T02:53:37.679Z,5.10
2019-06-01T02:54:42.524Z,5.30
2019-06-01T02:55:46.684Z,6.75
2019-06-01T02:56:51.513Z,8.55
2019-06-01T02:57:56.017Z,5.10
2019-06-01T02:59:00.801Z,7.85
2019-06-01T03:00:09.412Z,7.03
2019-06-01T03:01:23.347Z,7.03
2019-06-01T03:02:27.521Z,8.63
2019-06-01T03:03:32.463Z,8.80
2019-06-01T03:04:36.715Z,7.83
2019-06-01T03:05:41.423Z,5.28
2019-06-01T03:06:45.670Z,5.92
2019-06-01T03:07:50.419Z,8.43
2019-06-01T03:08:54.707Z,7.55
2019-06-01T03:10:00.952Z,5.37
2019-06-01T03:11:06.084Z,6.97
2019-06-01T03:12:13.639Z,8.33
2019-06-01T03:13:17.813Z,7.20
2019-06-01T03:14:24.388Z,7.37
2019-06-01T03:15:28.711Z,6.67
2019-06-01T03:16:33.578Z,7.95
2019-06-01T03:17:37.918Z,7.78
2019-06-01T03:18:42.687Z,7.72
2019-06-01T03:19:46.963Z,5.80
2019-06-01T03:20:51.745Z,7.12
2019-06-01T03:21:57.452Z,6.87
2019-06-01T03:23:02.211Z,6.70
2019-06-01T03:24:08.419Z,5.30
2019-06-01T03:25:13.733Z,6.17
2019-06-01T03:26:17.892Z,6.93
2019-06-01T03:27:23.556Z,5.60
2019-06-01T03:28:27.753Z,7.42
2019-06-01T03:29:32.510Z,5.83
2019-06-01T03:30:45.436Z,5.95
2019-06-01T03:31:49.048Z,6.92
2019-06-01T03:32:53.213Z,5.55
2019-06-01T03:33:59.146Z,5.03
2019-06-01T03:35:04.650Z,7.08
2019-06-01T03:36:09.452Z,5.60
2019-06-01T03:37:13.735Z,5.63
2019-06-01T03:38:18.494Z,4.87
2019-06-01T03:39:22.852Z,5.97
2019-06-01T03:40:27.709Z,4.62
2019-06-01T03:41:32.197Z,4.92
2019-06-01T03:42:37.208Z,6.42
2019-06-01T03:43:41.381Z,5.65
2019-06-01T03:44:46.404Z,7.15
2019-06-01T03:45:50.745Z,5.20
2019-06-01T03:46:55.703Z,5.70
2019-06-01T03:48:00.525Z,5.60
2019-06-01T03:49:05.733Z,9.53
2019-06-01T03:50:10.997Z,4.42
2019-06-01T03:51:15.808Z,5.47
2019-06-01T03:52:20.184Z,6.67
2019-06-01T03:53:24.940Z,6.90
2019-06-01T03:54:29.185Z,8.85
2019-06-01T03:55:34.085Z,5.65
2019-06-01T03:56:38.380Z,6.75
2019-06-01T03:57:43.247Z,5.97
2019-06-01T03:58:47.591Z,6.53
2019-06-01T03:59:52.468Z,5.75
2019-06-01T04:00:56.686Z,6.28
2019-06-01T04:02:01.553Z,6.25
2019-06-01T04:03:05.767Z,4.35
2019-06-01T04:04:11.283Z,6.50
2019-06-01T04:05:15.804Z,5.87
2019-06-01T04:06:20.695Z,6.13
2019-06-01T04:07:24.868Z,4.60
2019-06-01T04:08:29.492Z,7.92
2019-06-01T04:09:34.023Z,7.15
2019-06-01T04:10:38.777Z,6.25
2019-06-01T04:11:43.343Z,7.47
2019-06-01T04:12:48.116Z,5.28
2019-06-01T04:13:52.646Z,5.45
2019-06-01T04:14:57.602Z,5.58
2019-06-01T04:16:01.874Z,5.70
2019-06-01T04:17:08.021Z,6.15
2019-06-01T04:18:13.889Z,7.47
2019-06-01T04:19:19.025Z,4.93
2019-06-01T04:20:23.140Z,4.50
2019-06-01T04:21:28.050Z,6.22
2019-06-01T04:22:32.226Z,6.55
2019-06-01T04:23:37.186Z,5.55
2019-06-01T04:24:42.524Z,5.72
2019-06-01T04:25:47.261Z,6.50
2019-06-01T04:26:51.566Z,5.95
2019-06-01T04:27:56.348Z,5.33
2019-06-01T04:29:02.194Z,7.45
2019-06-01T04:30:09.431Z,4.90
2019-06-01T04:31:13.839Z,6.20
2019-06-01T04:32:18.596Z,6.17
2019-06-01T04:33:22.844Z,4.97
2019-06-01T04:34:27.602Z,5.92
2019-06-01T04:35:31.984Z,6.03
2019-06-01T04:36:37.771Z,4.90
2019-06-01T04:37:41.944Z,5.37
2019-06-01T04:38:46.701Z,5.92
2019-06-01T04:39:51.080Z,6.03
2019-06-01T04:40:56.001Z,7.42
2019-06-01T04:42:00.945Z,5.25
2019-06-01T04:43:05.810Z,5.55
2019-06-01T04:44:10.154Z,237.13
2019-06-01T04:45:14.898Z,321.37
2019-06-01T04:46:19.565Z,293.30
2019-06-01T04:47:24.380Z,96.05
2019-06-01T04:48:28.665Z,22.05
2019-06-01T04:49:33.420Z,9.90
2019-06-01T04:50:37.594Z,7.63
2019-06-01T04:51:42.652Z,9.03
2019-06-01T04:52:46.892Z,7.40
2019-06-01T04:53:51.773Z,5.20
2019-06-01T04:54:55.940Z,5.10
2019-06-01T04:56:00.806Z,6.10
2019-06-01T04:57:05.232Z,5.30
2019-06-01T04:58:11.078Z,6.75
2019-06-01T04:59:16.723Z,7.13
2019-06-01T05:00:27.244Z,8.13
2019-06-01T05:01:27.687Z,8.60
2019-06-01T05:02:32.598Z,8.40
2019-06-01T05:03:36.848Z,8.58
2019-06-01T05:04:43.541Z,5.05
2019-06-01T05:05:47.581Z,6.92
2019-06-01T05:06:52.649Z,7.60
2019-06-01T05:07:56.858Z,6.53
2019-06-01T05:09:01.617Z,7.03
2019-06-01T05:10:07.768Z,5.40
2019-06-01T05:11:13.575Z,5.63
2019-06-01T05:12:17.876Z,5.13
2019-06-01T05:13:23.712Z,5.10
2019-06-01T05:14:28.252Z,5.35
2019-06-01T05:15:33.115Z,5.53
2019-06-01T05:16:37.492Z,5.75
2019-06-01T05:17:42.311Z,4.90
2019-06-01T05:18:46.553Z,4.70
2019-06-01T05:19:51.673Z,6.90
2019-06-01T05:20:55.891Z,4.25
2019-06-01T05:22:00.871Z,5.85
2019-06-01T05:23:06.496Z,6.80
2019-06-01T05:24:12.736Z,5.73
2019-06-01T05:25:17.261Z,4.00
2019-06-01T05:26:22.024Z,5.40
2019-06-01T05:27:26.197Z,5.17
2019-06-01T05:28:30.948Z,5.50
2019-06-01T05:29:35.469Z,4.58
2019-06-01T05:30:40.284Z,4.10
2019-06-01T05:31:44.784Z,6.55
2019-06-01T05:32:49.724Z,5.03
2019-06-01T05:33:53.868Z,4.95
2019-06-01T05:34:58.746Z,4.97
2019-06-01T05:36:02.920Z,7.12
2019-06-01T05:37:08.497Z,4.30
2019-06-01T05:38:12.694Z,4.47
2019-06-01T05:39:18.698Z,5.63
2019-06-01T05:40:23.144Z,6.23
2019-06-01T05:41:27.900Z,5.45
2019-06-01T05:42:32.096Z,4.70
2019-06-01T05:43:38.470Z,5.17
2019-06-01T05:44:42.700Z,5.37
2019-06-01T05:45:47.460Z,4.78
2019-06-01T05:46:52.856Z,6.45
2019-06-01T05:47:57.619Z,4.20
2019-06-01T05:49:01.925Z,4.10
2019-06-01T05:50:10.595Z,4.83
2019-06-01T05:51:16.827Z,4.47
2019-06-01T05:52:22.960Z,5.97
2019-06-01T05:53:27.210Z,3.85
2019-06-01T05:54:33.486Z,4.33
2019-06-01T05:55:37.852Z,4.78
2019-06-01T05:56:42.726Z,7.35
2019-06-01T05:57:46.902Z,5.23
2019-06-01T05:58:51.786Z,4.72
2019-06-01T05:59:56.149Z,4.15
2019-06-01T06:01:00.930Z,6.85
2019-06-01T06:02:05.232Z,11.10
2019-06-01T06:03:14.351Z,43.80
2019-06-01T06:04:17.531Z,10.50
2019-06-01T06:05:23.891Z,14.73
2019-06-01T06:06:28.264Z,13.80
2019-06-01T06:07:33.032Z,8.18
2019-06-01T06:08:37.444Z,6.83
2019-06-01T06:09:42.360Z,5.20
2019-06-01T06:10:47.424Z,6.50
2019-06-01T06:11:54.037Z,8.63
2019-06-01T06:12:58.376Z,6.92
2019-06-01T06:14:03.132Z,6.37
2019-06-01T06:15:11.451Z,4.78
2019-06-01T06:16:17.959Z,7.85
2019-06-01T06:17:24.291Z,7.10
2019-06-01T06:18:29.270Z,4.37
2019-06-01T06:19:33.455Z,4.90
2019-06-01T06:20:38.257Z,5.65
2019-06-01T06:21:42.477Z,5.47
2019-06-01T06:22:47.404Z,7.97
2019-06-01T06:23:51.708Z,4.30
2019-06-01T06:24:56.637Z,7.47
2019-06-01T06:26:02.274Z,8.15
2019-06-01T06:27:07.030Z,6.45
2019-06-01T06:28:12.468Z,6.47
2019-06-01T06:29:17.351Z,4.70
2019-06-01T06:30:23.029Z,6.13
2019-06-01T06:31:27.800Z,5.87
2019-06-01T06:32:31.976Z,8.25
2019-06-01T06:33:37.083Z,4.97
2019-06-01T06:34:41.391Z,5.80
2019-06-01T06:35:46.248Z,3.85
2019-06-01T06:36:50.471Z,5.67
2019-06-01T06:37:56.075Z,6.75
2019-06-01T06:39:00.379Z,6.95
2019-06-01T06:40:07.265Z,5.37
2019-06-01T06:41:11.622Z,6.27
2019-06-01T06:42:16.450Z,6.20
2019-06-01T06:43:29.701Z,5.63
2019-06-01T06:44:27.284Z,7.53
2019-06-01T06:45:33.108Z,5.28
2019-06-01T06:46:37.969Z,5.95
2019-06-01T06:47:42.145Z,5.97
2019-06-01T06:48:46.981Z,10.70
2019-06-01T06:49:51.263Z,4.35
2019-06-01T06:50:56.004Z,4.65
2019-06-01T06:52:00.620Z,6.47
2019-06-01T06:53:05.481Z,5.58
2019-06-01T06:54:09.665Z,11.30
2019-06-01T06:55:15.646Z,5.47
2019-06-01T06:56:20.000Z,5.77
2019-06-01T06:57:26.163Z,6.53
2019-06-01T06:58:30.502Z,4.80
2019-06-01T06:59:35.324Z,5.00
2019-06-01T07:00:39.600Z,4.53
2019-06-01T07:01:44.427Z,5.25
2019-06-01T07:02:48.660Z,3.52
2019-06-01T07:03:53.468Z,3.67
2019-06-01T07:04:57.664Z,7.28
2019-06-01T07:06:02.423Z,8.48
2019-06-01T07:07:06.810Z,6.22
2019-06-01T07:08:11.614Z,5.80
2019-06-01T07:09:15.779Z,4.60
2019-06-01T07:10:20.566Z,5.40
2019-06-01T07:11:25.336Z,4.97
2019-06-01T07:12:33.363Z,5.17
2019-06-01T07:13:37.596Z,5.62
2019-06-01T07:14:42.352Z,4.80
2019-06-01T07:15:46.543Z,4.03
2019-06-01T07:16:51.526Z,5.67
2019-06-01T07:17:55.699Z,4.90
2019-06-01T07:19:00.452Z,4.05
2019-06-01T07:20:06.536Z,5.58
2019-06-01T07:21:11.292Z,5.20
2019-06-01T07:22:17.044Z,5.23
2019-06-01T07:23:22.027Z,4.50
2019-06-01T07:24:26.217Z,5.47
2019-06-01T07:25:30.972Z,4.97
2019-06-01T07:26:35.173Z,4.17
2019-06-01T07:27:40.219Z,8.63
2019-06-01T07:28:45.585Z,5.92
2019-06-01T07:29:50.570Z,4.42
2019-06-01T07:30:54.716Z,5.95
2019-06-01T07:31:59.472Z,4.62
2019-06-01T07:33:04.787Z,5.50
2019-06-01T07:34:09.583Z,3.60
2019-06-01T07:35:14.520Z,4.10
2019-06-01T07:36:20.267Z,5.30
2019-06-01T07:37:24.599Z,6.33
2019-06-01T07:38:29.593Z,5.30
2019-06-01T07:39:33.877Z,4.58
2019-06-01T07:40:38.934Z,4.22
2019-06-01T07:41:43.471Z,3.60
2019-06-01T07:42:48.264Z,4.78
2019-06-01T07:43:52.680Z,5.27
2019-06-01T07:44:57.477Z,5.35
2019-06-01T07:46:01.648Z,3.72
2019-06-01T07:47:06.555Z,7.00
2019-06-01T07:48:10.720Z,5.03
2019-06-01T07:49:16.592Z,4.90
2019-06-01T07:50:21.893Z,4.50
2019-06-01T07:51:27.419Z,6.10
2019-06-01T07:52:32.418Z,7.35
2019-06-01T07:53:37.547Z,5.00
2019-06-01T07:54:41.726Z,3.65
2019-06-01T07:55:46.610Z,5.15
2019-06-01T07:56:51.731Z,5.40
2019-06-01T07:57:56.480Z,5.60
2019-06-01T07:59:00.744Z,4.75
2019-06-01T08:00:07.930Z,4.25
2019-06-01T08:01:13.791Z,4.30
2019-06-01T08:02:18.682Z,5.37
2019-06-01T08:03:26.020Z,6.03
2019-06-01T08:04:31.767Z,5.22
2019-06-01T08:05:35.221Z,4.95
2019-06-01T08:06:46.557Z,4.30
2019-06-01T08:07:54.515Z,4.83
2019-06-01T08:09:02.932Z,4.37
2019-06-01T08:10:10.168Z,4.70
2019-06-01T08:11:17.684Z,4.80
2019-06-01T08:12:25.209Z,4.87
2019-06-01T08:13:35.463Z,5.33
2019-06-01T08:14:39.870Z,6.80
2019-06-01T08:15:45.826Z,4.97
2019-06-01T08:16:52.090Z,5.55
2019-06-01T08:17:57.276Z,4.50
2019-06-01T08:19:01.944Z,4.87
2019-06-01T08:20:07.770Z,5.25
2019-06-01T08:21:12.152Z,7.67
2019-06-01T08:22:16.972Z,7.20
2019-06-01T08:23:21.876Z,4.90
2019-06-01T08:24:26.796Z,5.93
2019-06-01T08:25:32.795Z,5.22
2019-06-01T08:26:39.692Z,7.05
2019-06-01T08:27:44.020Z,5.17
2019-06-01T08:28:48.956Z,4.33
2019-06-01T08:29:53.145Z,6.00
2019-06-01T08:30:57.998Z,6.20
2019-06-01T08:32:02.152Z,4.72
2019-06-01T08:33:07.096Z,4.15
2019-06-01T08:34:11.505Z,4.20
2019-06-01T08:35:16.552Z,6.57
2019-06-01T08:36:20.930Z,5.27
2019-06-01T08:37:25.618Z,9.03
2019-06-01T08:38:29.880Z,4.12
2019-06-01T08:39:34.661Z,4.80
2019-06-01T08:40:38.831Z,6.45
2019-06-01T08:41:43.675Z,6.05
2019-06-01T08:42:47.895Z,7.95
2019-06-01T08:43:52.715Z,5.63
2019-06-01T08:44:56.927Z,5.67
2019-06-01T08:46:01.709Z,4.42
2019-06-01T08:47:05.967Z,4.70
2019-06-01T08:48:10.700Z,5.93
2019-06-01T08:49:14.946Z,5.93
2019-06-01T08:50:20.274Z,4.17
2019-06-01T08:51:26.362Z,8.23
2019-06-01T08:52:32.192Z,6.37
2019-06-01T08:53:36.634Z,5.83
2019-06-01T08:54:41.391Z,5.55
2019-06-01T08:55:45.628Z,6.37
2019-06-01T08:56:50.222Z,6.28
2019-06-01T08:57:54.469Z,5.83
2019-06-01T08:58:59.210Z,5.50
2019-06-01T09:00:05.844Z,4.72
2019-06-01T09:01:10.702Z,4.63
2019-06-01T09:02:15.837Z,5.97
2019-06-01T09:03:20.596Z,5.57
2019-06-01T09:04:24.828Z,3.02
2019-06-01T09:05:31.223Z,7.40
2019-06-01T09:06:35.766Z,4.37
2019-06-01T09:07:40.600Z,5.67
2019-06-01T09:08:44.766Z,6.62
2019-06-01T09:09:49.577Z,5.00
2019-06-01T09:10:53.748Z,4.47
2019-06-01T09:11:58.683Z,3.67
2019-06-01T09:13:02.858Z,6.40
2019-06-01T09:14:07.673Z,4.97
2019-06-01T09:15:12.135Z,5.67
2019-06-01T09:16:17.108Z,6.53
2019-06-01T09:17:21.614Z,6.53
2019-06-01T09:18:27.537Z,4.33
2019-06-01T09:19:33.565Z,6.60
2019-06-01T09:20:39.403Z,5.75
2019-06-01T09:21:43.966Z,4.58
2019-06-01T09:22:48.775Z,3.53
2019-06-01T09:23:53.079Z,3.70
2019-06-01T09:24:57.911Z,3.80
2019-06-01T09:26:02.080Z,4.25
2019-06-01T09:27:06.910Z,3.47
2019-06-01T09:28:11.120Z,3.97
2019-06-01T09:29:15.880Z,3.70
2019-06-01T09:30:20.576Z,3.98
2019-06-01T09:31:26.284Z,4.00
2019-06-01T09:32:34.309Z,5.35
2019-06-01T09:33:38.264Z,3.80
2019-06-01T09:34:42.525Z,5.50
2019-06-01T09:35:55.528Z,3.15
2019-06-01T09:36:55.536Z,3.57
2019-06-01T09:38:00.645Z,2.95
2019-06-01T09:39:07.403Z,3.27
2019-06-01T09:40:12.515Z,2.50
2019-06-01T09:41:16.748Z,5.33
2019-06-01T09:42:21.688Z,5.97
2019-06-01T09:43:26.535Z,5.95
2019-06-01T09:44:31.980Z,6.00
2019-06-01T09:45:36.777Z,5.15
2019-06-01T09:46:41.537Z,5.10
2019-06-01T09:47:46.115Z,5.35
2019-06-01T09:48:51.199Z,4.80
2019-06-01T09:49:55.512Z,3.85
2019-06-01T09:51:00.277Z,8.30
2019-06-01T09:52:04.764Z,4.65
2019-06-01T09:53:09.515Z,3.47
2019-06-01T09:54:13.750Z,5.33
2019-06-01T09:55:18.552Z,3.67
2019-06-01T09:56:22.724Z,6.10
2019-06-01T09:57:27.722Z,4.35
2019-06-01T09:58:32.297Z,3.05
2019-06-01T09:59:38.165Z,4.60
2019-06-01T10:00:43.958Z,3.05
2019-06-01T10:01:48.977Z,2.20
2019-06-01T10:02:53.240Z,3.22
2019-06-01T10:03:58.057Z,3.12
2019-06-01T10:05:02.345Z,3.10
2019-06-01T10:06:08.192Z,2.52
2019-06-01T10:07:12.546Z,4.57
2019-06-01T10:08:17.347Z,3.73
2019-06-01T10:09:21.764Z,3.60
2019-06-01T10:10:26.521Z,2.75
2019-06-01T10:11:32.496Z,1.95
2019-06-01T10:12:38.182Z,3.10
2019-06-01T10:13:42.739Z,4.15
2019-06-01T10:14:48.504Z,4.12
2019-06-01T10:15:52.676Z,2.27
2019-06-01T10:16:57.485Z,4.55
2019-06-01T10:18:01.652Z,2.77
2019-06-01T10:19:06.625Z,4.03
2019-06-01T10:20:11.813Z,1.73
2019-06-01T10:21:16.571Z,2.52
2019-06-01T10:22:20.757Z,3.40
2019-06-01T10:23:25.511Z,3.53
2019-06-01T10:24:31.088Z,4.90
2019-06-01T10:25:36.470Z,3.77
2019-06-01T10:26:41.860Z,2.95
2019-06-01T10:27:46.657Z,1.72
2019-06-01T10:28:50.902Z,2.70
2019-06-01T10:29:55.685Z,2.15
2019-06-01T10:30:59.935Z,1.80
2019-06-01T10:32:05.160Z,2.40
2019-06-01T10:33:09.315Z,3.37
2019-06-01T10:34:14.077Z,2.83
2019-06-01T10:35:18.563Z,2.43
2019-06-01T10:36:23.380Z,3.27
2019-06-01T10:37:27.726Z,2.90
2019-06-01T10:38:33.398Z,2.12
2019-06-01T10:39:37.674Z,3.45
2019-06-01T10:40:42.465Z,1.87
2019-06-01T10:41:46.712Z,2.42
2019-06-01T10:42:51.526Z,3.20
2019-06-01T10:43:55.687Z,2.62
2019-06-01T10:45:00.452Z,1.52
2019-06-01T10:46:04.984Z,2.47
2019-06-01T10:47:09.735Z,2.60
2019-06-01T10:48:13.903Z,7.53
2019-06-01T10:49:19.666Z,2.73
2019-06-01T10:50:23.929Z,1.85
2019-06-01T10:51:28.684Z,2.37
2019-06-01T10:52:36.243Z,2.12
2019-06-01T10:53:42.443Z,2.12
2019-06-01T10:54:46.920Z,3.55
2019-06-01T10:55:51.677Z,2.20
2019-06-01T10:56:55.873Z,3.02
2019-06-01T10:58:00.636Z,3.77
2019-06-01T10:59:05.177Z,3.90
2019-06-01T11:00:13.207Z,2.85
2019-06-01T11:01:17.376Z,1.63
2019-06-01T11:02:22.250Z,1.63
2019-06-01T11:03:26.420Z,3.58
2019-06-01T11:04:32.689Z,3.17
2019-06-01T11:05:36.920Z,2.47
2019-06-01T11:06:46.476Z,2.02
2019-06-01T11:07:47.751Z,2.00
2019-06-01T11:08:52.506Z,2.37
2019-06-01T11:09:56.695Z,2.95
2019-06-01T11:11:01.447Z,3.05
2019-06-01T11:12:05.620Z,3.05
2019-06-01T11:13:10.407Z,1.30
2019-06-01T11:14:14.572Z,2.20
2019-06-01T11:15:19.408Z,1.40
2019-06-01T11:16:23.586Z,2.13
2019-06-01T11:17:28.363Z,1.20
2019-06-01T11:18:33.200Z,2.25
2019-06-01T11:19:39.372Z,1.30
2019-06-01T11:20:43.694Z,2.42
2019-06-01T11:21:48.476Z,1.57
2019-06-01T11:22:52.649Z,2.80
2019-06-01T11:23:57.404Z,2.10
2019-06-01T11:25:01.627Z,1.92
2019-06-01T11:26:06.424Z,1.50
2019-06-01T11:27:10.596Z,2.52
2019-06-01T11:28:15.387Z,1.60
2019-06-01T11:29:19.927Z,2.47
2019-06-01T11:30:24.736Z,2.95
2019-06-01T11:31:28.905Z,1.15
2019-06-01T11:32:39.475Z,1.52
2019-06-01T11:33:42.781Z,2.12
2019-06-01T11:34:47.658Z,2.20
2019-06-01T11:35:51.949Z,1.95
2019-06-01T11:37:04.965Z,1.37
2019-06-01T11:38:02.812Z,2.75
2019-06-01T11:39:08.060Z,1.42
2019-06-01T11:40:12.299Z,1.33
2019-06-01T11:41:18.706Z,1.30
2019-06-01T11:42:23.074Z,1.73
2019-06-01T11:43:27.901Z,1.40
2019-06-01T11:44:32.180Z,1.07
2019-06-01T11:45:36.937Z,1.62
2019-06-01T11:46:41.404Z,1.25
2019-06-01T11:47:46.160Z,3.12
2019-06-01T11:48:50.520Z,1.35
2019-06-01T11:49:55.385Z,1.87
2019-06-01T11:50:59.597Z,1.53
2019-06-01T11:52:05.472Z,1.60
2019-06-01T11:53:09.724Z,1.37
2019-06-01T11:54:14.514Z,1.60
2019-06-01T11:55:18.770Z,1.02
2019-06-01T11:56:23.710Z,1.17
2019-06-01T11:57:28.089Z,1.00
2019-06-01T11:58:32.912Z,0.98
2019-06-01T11:59:37.475Z,2.47
2019-06-01T12:00:43.743Z,2.35
2019-06-01T12:01:47.923Z,1.52
2019-06-01T12:02:52.703Z,1.90
2019-06-01T12:03:56.899Z,2.45
2019-06-01T12:05:01.730Z,2.52
2019-06-01T12:06:06.393Z,1.17
2019-06-01T12:07:17.719Z,1.40
2019-06-01T12:08:17.120Z,1.03
2019-06-01T12:09:21.928Z,1.98
2019-06-01T12:10:26.355Z,1.25
2019-06-01T12:11:31.206Z,1.32
2019-06-01T12:12:36.012Z,1.02
2019-06-01T12:13:41.907Z,1.55
2019-06-01T12:14:46.858Z,1.60
2019-06-01T12:15:52.149Z,1.22
2019-06-01T12:16:56.484Z,1.30
2019-06-01T12:18:01.254Z,1.55
2019-06-01T12:19:05.540Z,1.52
2019-06-01T12:20:10.689Z,1.97
2019-06-01T12:21:15.832Z,2.17
2019-06-01T12:22:20.618Z,1.53
2019-06-01T12:23:24.847Z,1.45
2019-06-01T12:24:29.814Z,1.45
2019-06-01T12:25:34.007Z,1.77
2019-06-01T12:26:39.270Z,1.30
2019-06-01T12:27:43.639Z,2.30
2019-06-01T12:28:48.560Z,1.52
2019-06-01T12:29:52.947Z,1.55
2019-06-01T12:30:58.786Z,1.32
2019-06-01T12:32:03.073Z,2.83
2019-06-01T12:33:08.428Z,1.20
2019-06-01T12:34:12.684Z,2.70
2019-06-01T12:35:17.650Z,1.93
2019-06-01T12:36:21.804Z,2.17
2019-06-01T12:37:45.569Z,1.20
2019-06-01T12:38:34.225Z,2.00
2019-06-01T12:39:40.330Z,2.70
2019-06-01T12:40:45.326Z,1.02
2019-06-01T12:41:51.732Z,1.55
2019-06-01T12:42:56.067Z,2.72
2019-06-01T12:44:13.252Z,1.47
2019-06-01T12:45:22.232Z,1.80
2019-06-01T12:46:24.444Z,2.00
2019-06-01T12:47:28.623Z,2.07
2019-06-01T12:48:33.380Z,1.92
2019-06-01T12:49:37.552Z,1.35
2019-06-01T12:50:46.142Z,1.57
2019-06-01T12:51:49.028Z,1.35
2019-06-01T12:52:53.944Z,0.93
2019-06-01T12:53:58.140Z,0.88
2019-06-01T12:55:02.937Z,2.40
2019-06-01T12:56:07.129Z,1.95
2019-06-01T12:57:12.026Z,1.63
2019-06-01T12:58:16.198Z,3.77
2019-06-01T12:59:21.027Z,1.20
2019-06-01T13:00:25.337Z,1.05
2019-06-01T13:01:30.124Z,1.87
2019-06-01T13:02:34.419Z,2.62
2019-06-01T13:03:39.286Z,3.52
2019-06-01T13:04:44.827Z,2.52
2019-06-01T13:05:49.984Z,3.08
2019-06-01T13:06:54.309Z,0.80
2019-06-01T13:08:02.831Z,1.92
2019-06-01T13:09:07.509Z,1.82
2019-06-01T13:10:12.419Z,1.30
2019-06-01T13:11:16.924Z,3.20
2019-06-01T13:12:21.699Z,1.53
2019-06-01T13:13:25.946Z,2.45
2019-06-01T13:14:31.246Z,2.65
2019-06-01T13:15:35.489Z,1.50
2019-06-01T13:16:46.345Z,1.75
2019-06-01T13:17:47.226Z,1.37
2019-06-01T13:18:52.162Z,1.25
2019-06-01T13:19:56.384Z,2.87
2019-06-01T13:21:01.316Z,4.65
2019-06-01T13:22:05.755Z,1.10
2019-06-01T13:23:10.525Z,2.00
2019-06-01T13:24:15.616Z,2.70
2019-06-01T13:25:20.446Z,1.00
2019-06-01T13:26:25.159Z,1.90
2019-06-01T13:27:30.209Z,1.72
2019-06-01T13:28:37.960Z,1.02
2019-06-01T13:29:41.687Z,1.55
2019-06-01T13:30:47.366Z,2.47
2019-06-01T13:31:52.662Z,2.52
2019-06-01T13:32:57.033Z,1.85
2019-06-01T13:34:01.923Z,1.27
2019-06-01T13:35:07.265Z,1.30
2019-06-01T13:36:12.073Z,1.73
2019-06-01T13:37:16.270Z,1.50
2019-06-01T13:38:22.020Z,2.53
2019-06-01T13:39:30.314Z,1.89
2019-06-01T13:40:35.153Z,1.37
2019-06-01T13:41:39.329Z,1.27
2019-06-01T13:42:45.413Z,2.70
2019-06-01T13:43:49.598Z,1.07
2019-06-01T13:44:54.386Z,0.95
2019-06-01T13:45:58.711Z,1.32
2019-06-01T13:47:03.614Z,1.50
2019-06-01T13:48:07.881Z,3.08
2019-06-01T13:49:12.636Z,2.25
2019-06-01T13:50:17.501Z,1.73
2019-06-01T13:51:22.315Z,1.37
2019-06-01T13:52:26.552Z,1.45
2019-06-01T13:53:31.567Z,1.22
2019-06-01T13:54:40.026Z,1.05
2019-06-01T13:55:44.056Z,2.50
2019-06-01T13:56:48.814Z,1.77
2019-06-01T13:57:54.544Z,1.57
2019-06-01T13:58:58.876Z,1.30
2019-06-01T14:00:05.613Z,1.75
2019-06-01T14:01:10.069Z,3.17
2019-06-01T14:02:14.824Z,1.77
2019-06-01T14:03:18.998Z,1.97
2019-06-01T14:04:23.903Z,1.23
2019-06-01T14:05:29.079Z,1.12
2019-06-01T14:06:33.925Z,1.00
2019-06-01T14:07:38.597Z,1.37
2019-06-01T14:08:44.880Z,0.90
2019-06-01T14:09:49.486Z,2.77
2019-06-01T14:10:55.466Z,0.80
2019-06-01T14:11:59.666Z,1.15
2019-06-01T14:13:05.630Z,2.30
2019-06-01T14:14:09.824Z,1.00
2019-06-01T14:15:15.300Z,0.73
2019-06-01T14:16:19.807Z,2.03
2019-06-01T14:17:24.564Z,2.52
2019-06-01T14:18:28.885Z,1.30
2019-06-01T14:19:33.641Z,1.10
2019-06-01T14:20:38.161Z,0.95
2019-06-01T14:21:42.976Z,1.85
2019-06-01T14:22:47.660Z,1.07
2019-06-01T14:23:53.941Z,1.05